Time;durP1;ratioP1;P1;durP2;ratioP2;P2;SDS_P1;SDS_P2;PMS_P1;PMS_P2;Temp;Humidity;BMP_temperature;BMP_pressure;BME280_temperature;BME280_humidity;BME280_pressure;Samples;Min_cycle;Max_cycle;Signal;HPM_P1;HPM_P2
2021/10/09 00:02:07;;;;;;;0.63;0.63;;;11.60;99.90;;;;;;4958432;29;20243;-68
2021/10/09 00:04:33;;;;;;;0.30;0.30;;;11.60;99.90;;;;;;4958501;29;20259;-68
2021/10/09 00:06:58;;;;;;;0.30;0.20;;;11.50;99.90;;;;;;4957823;28;20270;-68
2021/10/09 00:09:24;;;;;;;0.20;0.10;;;11.50;99.90;;;;;;4957187;29;20188;-68
2021/10/09 00:11:50;;;;;;;0.30;0.20;;;11.40;99.90;;;;;;4958353;28;20176;-68
2021/10/09 00:14:15;;;;;;;1.80;1.70;;;11.40;99.90;;;;;;4958964;28;20192;-68
2021/10/09 00:16:43;;;;;;;0.27;0.20;;;11.30;99.90;;;;;;4958807;29;20188;-68
2021/10/09 00:19:09;;;;;;;0.30;0.20;;;11.30;99.90;;;;;;4958472;28;20191;-68
2021/10/09 00:21:35;;;;;;;1.33;1.00;;;11.30;99.90;;;;;;4957151;29;20212;-68
2021/10/09 00:24:01;;;;;;;0.20;0.20;;;11.20;99.90;;;;;;4958155;28;20314;-69
2021/10/09 00:26:27;;;;;;;0.30;0.20;;;11.30;99.90;;;;;;4958180;29;20242;-71
2021/10/09 00:28:53;;;;;;;3.60;3.40;;;11.20;99.90;;;;;;4957708;28;20281;-70
2021/10/09 00:31:19;;;;;;;0.70;0.70;;;11.10;99.90;;;;;;4957984;28;20658;-70
2021/10/09 00:33:44;;;;;;;0.30;0.20;;;11.00;99.90;;;;;;4958082;28;20193;-73
2021/10/09 00:36:10;;;;;;;0.30;0.20;;;11.10;99.90;;;;;;4960350;29;20270;-69
2021/10/09 00:38:35;;;;;;;0.20;0.20;;;11.10;99.90;;;;;;4959271;29;20177;-69
2021/10/09 00:41:02;;;;;;;0.20;0.20;;;11.00;99.90;;;;;;4957946;28;20298;-68
2021/10/09 00:43:27;;;;;;;0.30;0.20;;;11.10;99.90;;;;;;4957877;28;20207;-69
2021/10/09 00:45:56;;;;;;;1.07;1.07;;;11.10;99.90;;;;;;4957722;28;20565;-71
2021/10/09 00:48:25;;;;;;;0.25;0.20;;;11.00;99.90;;;;;;4957383;28;20187;-71
2021/10/09 00:50:52;;;;;;;0.30;0.10;;;10.90;99.90;;;;;;4957882;28;20647;-68
2021/10/09 00:53:24;;;;;;;0.30;0.20;;;10.90;99.90;;;;;;4958715;28;20178;-68
2021/10/09 00:55:52;;;;;;;0.20;0.20;;;11.00;99.90;;;;;;4957484;28;20192;-69
2021/10/09 00:58:19;;;;;;;0.73;0.73;;;11.00;99.90;;;;;;4957332;28;20202;-68
2021/10/09 01:00:46;;;;;;;0.50;0.50;;;10.80;99.90;;;;;;4957801;28;20203;-71
2021/10/09 01:03:12;;;;;;;0.30;0.20;;;10.80;99.90;;;;;;4957540;28;20595;-71
2021/10/09 01:05:39;;;;;;;0.27;0.20;;;10.70;99.90;;;;;;4956936;28;20271;-70
2021/10/09 01:08:04;;;;;;;0.30;0.20;;;10.80;99.90;;;;;;4960774;29;20465;-70
2021/10/09 01:10:31;;;;;;;0.30;0.20;;;10.70;99.90;;;;;;4968988;29;20188;-70
2021/10/09 01:12:58;;;;;;;1.58;1.13;;;10.60;99.90;;;;;;4968272;28;20184;-68
2021/10/09 01:15:32;;;;;;;0.20;0.20;;;10.70;99.90;;;;;;4966042;28;20184;-68
2021/10/09 01:18:07;;;;;;;1.17;1.17;;;10.60;99.90;;;;;;4964207;28;20246;-68
2021/10/09 01:20:46;;;;;;;0.22;0.20;;;10.70;99.90;;;;;;4960919;28;20202;-69
2021/10/09 01:23:12;;;;;;;0.20;0.10;;;10.60;99.90;;;;;;4959037;29;20517;-70
2021/10/09 01:25:37;;;;;;;0.23;0.10;;;10.60;99.90;;;;;;4959221;28;20182;-70
2021/10/09 01:28:07;;;;;;;0.30;0.20;;;10.50;99.90;;;;;;4958322;28;20203;-70
2021/10/09 01:30:36;;;;;;;0.30;0.20;;;10.40;99.90;;;;;;4958683;29;20613;-70
2021/10/09 01:33:02;;;;;;;0.30;0.20;;;10.40;99.90;;;;;;4959202;28;20307;-69
2021/10/09 01:35:31;;;;;;;0.20;0.20;;;10.40;99.90;;;;;;4957156;28;20184;-68
2021/10/09 01:37:57;;;;;;;0.63;0.63;;;10.40;99.90;;;;;;4955535;29;20606;-70
2021/10/09 01:40:23;;;;;;;0.20;0.20;;;10.30;99.90;;;;;;4956579;28;20227;-70
2021/10/09 01:42:48;;;;;;;0.20;0.10;;;10.30;99.90;;;;;;4956568;28;20195;-71
2021/10/09 01:45:14;;;;;;;0.20;0.20;;;10.40;99.90;;;;;;4956583;29;20184;-71
2021/10/09 01:47:41;;;;;;;0.30;0.20;;;10.30;99.90;;;;;;4955414;29;20198;-71
2021/10/09 01:50:08;;;;;;;0.20;0.20;;;10.30;99.90;;;;;;4956245;28;20199;-69
2021/10/09 01:52:33;;;;;;;0.20;0.20;;;10.40;99.90;;;;;;4956448;29;20194;-69
2021/10/09 01:54:59;;;;;;;0.20;0.20;;;10.40;99.90;;;;;;4956279;29;20525;-68
2021/10/09 01:57:24;;;;;;;0.30;0.20;;;10.40;99.90;;;;;;4956238;28;20192;-68
2021/10/09 01:59:50;;;;;;;0.20;0.20;;;10.30;99.90;;;;;;4955981;28;20274;-68
2021/10/09 02:02:15;;;;;;;0.20;0.17;;;10.20;99.90;;;;;;4956129;29;20631;-68
2021/10/09 02:04:41;;;;;;;0.20;0.20;;;10.20;99.90;;;;;;4956161;29;20231;-68
2021/10/09 02:07:12;;;;;;;0.20;0.20;;;10.00;99.90;;;;;;4956084;28;20633;-69
2021/10/09 02:09:38;;;;;;;0.20;0.20;;;10.10;99.90;;;;;;4956106;29;20187;-68
2021/10/09 02:12:04;;;;;;;0.30;0.20;;;10.00;99.90;;;;;;4957503;29;20183;-72
2021/10/09 02:14:47;;;;;;;0.20;0.20;;;9.90;99.90;;;;;;4956705;29;20187;-70
2021/10/09 02:17:32;;;;;;;0.20;0.10;;;10.00;99.90;;;;;;4957085;29;20430;-70
2021/10/09 02:25:46;;;;;;;0.20;0.20;;;9.70;99.90;;;;;;4956205;29;20250;-68
2021/10/09 02:28:19;;;;;;;0.93;0.93;;;9.70;99.90;;;;;;4955417;29;20194;-68
2021/10/09 02:30:47;;;;;;;0.20;0.10;;;9.80;99.90;;;;;;4955419;28;20226;-68
2021/10/09 02:33:13;;;;;;;0.40;0.40;;;9.80;99.90;;;;;;4954742;29;20629;-68
2021/10/09 02:35:39;;;;;;;0.20;0.10;;;9.80;99.90;;;;;;4955839;29;20207;-68
2021/10/09 02:38:07;;;;;;;0.20;0.20;;;9.60;99.90;;;;;;4954480;29;20186;-68
2021/10/09 02:40:34;;;;;;;0.20;0.20;;;9.60;99.90;;;;;;4955528;28;20208;-68
2021/10/09 02:43:01;;;;;;;0.20;0.20;;;9.70;99.90;;;;;;4955695;28;20629;-71
2021/10/09 02:45:26;;;;;;;0.20;0.20;;;9.60;99.90;;;;;;4955653;28;20191;-69
2021/10/09 02:47:55;;;;;;;0.20;0.20;;;9.50;99.90;;;;;;4955534;29;20174;-71
2021/10/09 02:50:21;;;;;;;0.20;0.20;;;9.50;99.90;;;;;;4955404;29;20187;-71
2021/10/09 02:52:46;;;;;;;0.73;0.73;;;9.40;99.90;;;;;;4955413;29;20184;-71
2021/10/09 02:55:16;;;;;;;0.20;0.20;;;9.30;99.90;;;;;;4955366;29;20183;-71
2021/10/09 02:57:42;;;;;;;0.20;0.20;;;9.30;99.90;;;;;;4955521;28;20728;-71
2021/10/09 03:00:09;;;;;;;0.20;0.20;;;9.20;99.90;;;;;;4955349;29;20213;-71
2021/10/09 03:02:35;;;;;;;0.20;0.20;;;9.30;99.90;;;;;;4955869;28;20597;-71
2021/10/09 03:05:05;;;;;;;0.30;0.20;;;9.40;99.90;;;;;;4954530;29;20204;-71
2021/10/09 03:07:31;;;;;;;0.20;0.20;;;9.30;99.90;;;;;;4954232;29;20187;-71
2021/10/09 03:09:57;;;;;;;0.20;0.20;;;9.30;99.90;;;;;;4955395;28;20519;-72
2021/10/09 03:12:22;;;;;;;0.20;0.20;;;9.40;99.90;;;;;;4955334;29;20180;-72
2021/10/09 03:14:48;;;;;;;0.20;0.10;;;9.40;99.90;;;;;;4955351;29;20188;-71
2021/10/09 03:17:14;;;;;;;0.20;0.20;;;9.30;99.90;;;;;;4955297;28;20432;-71
2021/10/09 03:19:39;;;;;;;0.20;0.20;;;9.30;99.90;;;;;;4954910;29;20254;-71
2021/10/09 03:22:06;;;;;;;0.27;0.23;;;9.30;99.90;;;;;;4955182;29;20255;-71
2021/10/09 03:24:31;;;;;;;0.20;0.20;;;9.30;99.90;;;;;;4955138;28;20173;-72
2021/10/09 03:26:57;;;;;;;0.20;0.20;;;9.20;99.90;;;;;;4954289;29;20268;-69
2021/10/09 03:29:22;;;;;;;0.20;0.20;;;9.20;99.90;;;;;;4955073;28;20194;-68
2021/10/09 03:31:48;;;;;;;0.20;0.20;;;9.30;99.90;;;;;;4955369;29;20215;-68
2021/10/09 03:34:13;;;;;;;0.20;0.20;;;9.30;99.90;;;;;;4955194;29;20676;-71
2021/10/09 03:36:39;;;;;;;0.20;0.20;;;9.10;99.90;;;;;;4955062;29;20184;-69
2021/10/09 03:39:10;;;;;;;0.20;0.20;;;9.00;99.90;;;;;;4954785;29;20225;-69
2021/10/09 03:41:40;;;;;;;0.30;0.20;;;9.00;99.90;;;;;;4955251;28;20209;-70
2021/10/09 03:44:06;;;;;;;0.30;0.20;;;9.10;99.90;;;;;;4958789;29;20497;-71
2021/10/09 03:46:39;;;;;;;0.30;0.30;;;9.20;99.90;;;;;;4958774;29;20178;-71
2021/10/09 03:49:18;;;;;;;0.20;0.20;;;9.20;99.90;;;;;;4958490;29;20213;-71
2021/10/09 03:54:44;;;;;;;0.40;0.40;;;9.00;99.90;;;;;;4956849;29;20197;-71
2021/10/09 03:57:10;;;;;;;0.30;0.30;;;9.00;99.90;;;;;;4953347;29;20544;-71
2021/10/09 03:59:35;;;;;;;9.77;1.60;;;8.90;99.90;;;;;;4958354;29;20528;-69
2021/10/09 04:02:01;;;;;;;0.20;0.20;;;8.90;99.90;;;;;;4956516;29;20630;-68
2021/10/09 04:04:28;;;;;;;0.20;0.20;;;9.00;99.90;;;;;;4958351;28;20173;-68
2021/10/09 04:06:54;;;;;;;0.20;0.17;;;9.00;99.90;;;;;;4958489;29;20211;-71
2021/10/09 04:09:19;;;;;;;0.30;0.20;;;8.80;99.90;;;;;;4958193;28;20605;-70
2021/10/09 04:11:45;;;;;;;0.40;0.40;;;8.80;99.90;;;;;;4958295;29;20192;-70
2021/10/09 04:14:11;;;;;;;0.20;0.20;;;8.70;99.90;;;;;;4958627;29;20184;-69
2021/10/09 04:16:36;;;;;;;0.43;0.20;;;8.70;99.90;;;;;;4958099;29;20659;-69
2021/10/09 04:19:02;;;;;;;0.20;0.20;;;8.70;99.90;;;;;;4957895;29;20188;-70
2021/10/09 04:21:28;;;;;;;0.20;0.20;;;8.60;99.90;;;;;;4957953;28;20254;-69
2021/10/09 04:23:54;;;;;;;0.93;0.93;;;8.60;99.90;;;;;;4958087;28;20901;-69
2021/10/09 04:26:20;;;;;;;0.30;0.20;;;8.80;99.90;;;;;;4958155;28;20652;-71
2021/10/09 04:28:46;;;;;;;0.20;0.20;;;8.70;99.90;;;;;;4956783;29;20208;-69
2021/10/09 04:31:11;;;;;;;0.20;0.20;;;8.70;99.90;;;;;;4957855;28;20210;-70
2021/10/09 04:33:37;;;;;;;0.30;0.30;;;8.70;99.90;;;;;;4957824;29;20184;-69
2021/10/09 04:36:02;;;;;;;3.33;1.00;;;8.60;99.90;;;;;;4957701;29;20516;-69
2021/10/09 04:38:28;;;;;;;0.20;0.20;;;8.40;99.90;;;;;;4957662;28;20201;-69
2021/10/09 04:40:53;;;;;;;1.07;0.97;;;8.40;99.90;;;;;;4957683;29;20247;-71
2021/10/09 04:43:19;;;;;;;0.30;0.30;;;8.30;99.90;;;;;;4957756;29;20189;-72
2021/10/09 04:45:45;;;;;;;1.07;1.07;;;8.30;99.90;;;;;;4957623;29;20191;-72
2021/10/09 04:48:10;;;;;;;0.30;0.30;;;8.30;99.90;;;;;;4957338;29;20255;-71
2021/10/09 04:50:36;;;;;;;0.40;0.30;;;8.40;99.90;;;;;;4957527;29;20614;-69
2021/10/09 04:53:02;;;;;;;3.27;3.17;;;8.50;99.90;;;;;;4957346;28;20200;-69
2021/10/09 04:55:27;;;;;;;0.80;0.80;;;8.30;99.90;;;;;;4957942;29;20628;-69
2021/10/09 04:57:54;;;;;;;0.20;0.20;;;8.40;99.90;;;;;;4957332;29;20498;-69
2021/10/09 05:00:20;;;;;;;0.20;0.20;;;8.40;99.90;;;;;;4957353;28;20212;-69
2021/10/09 05:02:46;;;;;;;0.20;0.20;;;8.30;99.90;;;;;;4957200;28;20191;-69
2021/10/09 05:05:12;;;;;;;0.20;0.20;;;8.40;99.90;;;;;;4956421;29;20184;-68
2021/10/09 05:07:37;;;;;;;1.40;1.37;;;8.30;99.90;;;;;;4957482;29;20180;-71
2021/10/09 05:10:04;;;;;;;0.20;0.20;;;8.10;99.90;;;;;;4956988;28;20259;-72
2021/10/09 05:12:30;;;;;;;0.20;0.20;;;8.10;99.90;;;;;;4957123;29;20210;-72
2021/10/09 05:14:55;;;;;;;0.20;0.20;;;8.10;99.90;;;;;;4957023;29;20673;-72
2021/10/09 05:17:21;;;;;;;0.20;0.17;;;8.10;99.90;;;;;;4957038;29;20193;-71
2021/10/09 05:19:47;;;;;;;0.30;0.20;;;8.10;99.90;;;;;;4956952;29;20259;-69
2021/10/09 05:22:12;;;;;;;1.90;1.90;;;8.00;99.90;;;;;;4957384;29;20191;-71
2021/10/09 05:24:38;;;;;;;0.20;0.20;;;7.80;99.90;;;;;;4957785;29;20180;-71
2021/10/09 05:27:03;;;;;;;0.20;0.20;;;8.00;99.90;;;;;;4956871;29;20202;-71
2021/10/09 05:29:30;;;;;;;0.40;0.40;;;8.00;99.90;;;;;;4956883;29;20598;-71
2021/10/09 05:32:03;;;;;;;0.20;0.17;;;7.80;99.90;;;;;;4955899;29;20530;-70
2021/10/09 05:34:29;;;;;;;0.30;0.20;;;7.80;99.90;;;;;;4957174;28;20183;-70
2021/10/09 05:36:56;;;;;;;0.73;0.70;;;7.80;99.90;;;;;;4957176;29;20334;-69
2021/10/09 05:39:21;;;;;;;0.20;0.20;;;7.90;99.90;;;;;;4940529;29;20254;-71
2021/10/09 05:41:47;;;;;;;1.33;0.93;;;7.70;99.90;;;;;;4959827;28;20693;-71
2021/10/09 05:44:12;;;;;;;1.07;0.87;;;7.70;99.90;;;;;;4960397;29;20195;-70
2021/10/09 05:46:38;;;;;;;0.83;0.83;;;7.70;99.90;;;;;;4968519;28;20176;-70
2021/10/09 05:49:05;;;;;;;0.50;0.40;;;7.50;99.90;;;;;;4968171;28;20184;-70
2021/10/09 05:51:40;;;;;;;1.10;0.68;;;7.50;99.90;;;;;;4958569;29;20435;-71
2021/10/09 05:57:01;;;;;;;0.20;0.20;;;7.50;99.90;;;;;;4957483;29;20653;-72
2021/10/09 06:25:18;;;;;;;0.25;0.20;;;7.40;99.90;;;;;;4962047;28;20188;-69
2021/10/09 06:41:56;;;;;;;0.73;0.73;;;8.00;99.90;;;;;;4956207;29;20202;-68
2021/10/09 06:47:04;;;;;;;1.23;0.63;;;7.80;99.90;;;;;;4956564;29;20188;-70
2021/10/09 06:50:07;;;;;;;0.65;0.65;;;7.80;99.90;;;;;;4954853;29;20215;-69
2021/10/09 07:01:04;;;;;;;3.85;3.58;;;7.80;99.90;;;;;;4956573;28;20231;-71
2021/10/09 07:03:30;;;;;;;0.67;0.67;;;7.80;99.90;;;;;;4956049;28;20184;-71
2021/10/09 07:05:56;;;;;;;0.87;0.87;;;7.90;99.90;;;;;;4956096;28;20187;-68
2021/10/09 07:08:22;;;;;;;0.93;0.93;;;7.80;99.90;;;;;;4959322;29;20267;-68
2021/10/09 07:10:48;;;;;;;3.20;3.03;;;7.80;99.90;;;;;;4959635;29;20271;-71
2021/10/09 07:13:14;;;;;;;0.65;0.65;;;7.80;99.90;;;;;;4957849;28;20185;-68
2021/10/09 07:15:40;;;;;;;0.30;0.20;;;7.90;99.90;;;;;;4958731;28;20191;-68
2021/10/09 07:18:10;;;;;;;0.87;0.87;;;8.00;99.90;;;;;;4963500;28;20530;-70
2021/10/09 07:20:36;;;;;;;2.42;2.25;;;7.90;99.90;;;;;;4964652;28;20215;-69
2021/10/09 07:23:02;;;;;;;1.37;1.37;;;7.90;99.90;;;;;;4963813;28;20196;-69
2021/10/09 07:25:27;;;;;;;1.50;1.40;;;7.90;99.90;;;;;;4963433;28;20427;-70
2021/10/09 07:27:53;;;;;;;2.67;2.50;;;8.10;99.90;;;;;;4962288;28;20451;-68
2021/10/09 07:30:20;;;;;;;1.73;0.90;;;8.20;99.90;;;;;;4962119;28;20188;-68
2021/10/09 07:32:46;;;;;;;0.20;0.20;;;8.30;99.90;;;;;;4962109;29;20182;-68
2021/10/09 07:35:13;;;;;;;0.32;0.32;;;8.20;99.90;;;;;;4962582;29;20216;-70
2021/10/09 07:37:39;;;;;;;3.20;2.75;;;8.30;99.90;;;;;;4961548;28;20268;-70
2021/10/09 07:40:06;;;;;;;0.20;0.20;;;8.30;99.90;;;;;;4960565;28;20236;-68
2021/10/09 07:42:31;;;;;;;0.20;0.20;;;8.30;99.90;;;;;;4962157;28;20176;-68
2021/10/09 07:44:57;;;;;;;0.20;0.20;;;8.50;99.90;;;;;;4961769;29;20188;-69
2021/10/09 07:47:23;;;;;;;0.30;0.20;;;8.70;99.90;;;;;;4959255;29;20546;-68
2021/10/09 07:49:48;;;;;;;1.90;1.53;;;8.90;99.90;;;;;;4959862;29;20263;-69
2021/10/09 07:52:17;;;;;;;1.10;1.10;;;8.90;99.90;;;;;;4962967;29;20177;-70
2021/10/09 07:54:43;;;;;;;4.85;4.55;;;8.90;99.90;;;;;;4964465;28;20192;-69
2021/10/09 07:57:08;;;;;;;3.73;3.33;;;8.90;99.90;;;;;;4964453;29;20179;-68
2021/10/09 07:59:34;;;;;;;6.00;3.80;;;8.80;99.90;;;;;;4961409;29;20182;-68
2021/10/09 08:02:01;;;;;;;2.45;2.20;;;8.80;99.90;;;;;;4963055;28;20217;-69
2021/10/09 08:04:29;;;;;;;0.20;0.20;;;8.90;99.90;;;;;;4962317;29;20247;-69
2021/10/09 08:06:54;;;;;;;3.67;2.67;;;9.00;99.90;;;;;;4964163;29;20194;-68
2021/10/09 08:09:20;;;;;;;0.30;0.30;;;9.10;99.90;;;;;;4961680;28;20194;-69
2021/10/09 08:11:46;;;;;;;2.87;2.47;;;9.30;99.90;;;;;;4959740;29;20176;-68
2021/10/09 08:14:11;;;;;;;9.80;2.53;;;9.20;99.90;;;;;;4961015;28;20230;-68
2021/10/09 08:16:37;;;;;;;1.43;1.33;;;9.10;99.90;;;;;;4959364;29;20192;-68
2021/10/09 08:19:03;;;;;;;1.20;1.20;;;9.20;99.90;;;;;;4957517;29;20532;-68
2021/10/09 08:21:30;;;;;;;1.60;1.00;;;9.30;99.90;;;;;;4961299;28;20221;-68
2021/10/09 08:24:04;;;;;;;3.33;3.08;;;9.40;99.90;;;;;;4970440;28;20454;-68
2021/10/09 08:39:57;;;;;;;3.80;3.45;;;10.00;1.00;;;;;;4957485;29;20218;-69
2021/10/09 08:42:22;;;;;;;1.13;1.07;;;10.10;1.00;;;;;;4957576;29;20282;-69
2021/10/09 08:44:48;;;;;;;0.80;0.80;;;10.20;1.00;;;;;;4957447;29;20187;-69
2021/10/09 08:47:13;;;;;;;0.53;0.53;;;10.10;1.00;;;;;;4956423;29;20203;-69
2021/10/09 08:49:39;;;;;;;0.30;0.20;;;10.10;1.00;;;;;;4956389;29;20194;-68
2021/10/09 08:52:05;;;;;;;3.10;2.90;;;10.30;1.00;;;;;;4956228;29;20196;-67
2021/10/09 08:54:36;;;;;;;1.90;1.63;;;10.30;1.00;;;;;;4957525;28;20537;-68
2021/10/09 08:57:19;;;;;;;2.90;2.65;;;10.30;1.00;;;;;;4957249;28;20180;-66
2021/10/09 08:59:55;;;;;;;0.95;0.50;;;10.40;1.00;;;;;;4957053;28;20180;-67
2021/10/09 09:02:45;;;;;;;0.93;0.68;;;10.70;1.00;;;;;;4957606;29;20563;-67
2021/10/09 09:05:39;;;;;;;1.38;1.10;;;10.70;99.90;;;;;;4957088;28;20200;-66
2021/10/09 09:08:18;;;;;;;11.32;10.77;;;10.80;99.90;;;;;;4957431;29;20517;-67
2021/10/09 09:30:23;;;;;;;0.40;0.38;;;11.30;99.90;;;;;;4956861;29;20226;-66
2021/10/09 09:33:32;;;;;;;5.97;5.43;;;11.80;99.90;;;;;;4956974;29;20218;-66
2021/10/09 09:41:21;;;;;;;1.88;1.75;;;12.00;87.80;;;;;;4955731;29;20294;-66
2021/10/09 09:43:52;;;;;;;0.88;0.88;;;12.00;99.90;;;;;;4955523;29;20188;-65
2021/10/09 09:46:22;;;;;;;0.75;0.63;;;12.20;1.00;;;;;;4956543;28;20180;-67
2021/10/09 09:48:47;;;;;;;1.23;1.15;;;12.30;1.00;;;;;;4956154;28;20511;-67
2021/10/09 09:51:15;;;;;;;1.33;1.23;;;12.40;1.00;;;;;;4956430;28;20214;-67
2021/10/09 09:53:42;;;;;;;3.13;2.25;;;12.40;1.00;;;;;;4956352;28;20207;-66
2021/10/09 09:56:09;;;;;;;3.75;3.40;;;12.20;1.00;;;;;;4956179;28;20681;-66
2021/10/09 09:58:40;;;;;;;4.90;3.92;;;12.20;1.00;;;;;;4955609;28;20235;-66
2021/10/09 10:01:08;;;;;;;3.22;2.25;;;12.20;1.00;;;;;;4955923;28;20216;-66
2021/10/09 10:03:34;;;;;;;2.75;2.03;;;12.20;1.00;;;;;;4955752;29;20572;-67
2021/10/09 10:06:01;;;;;;;2.30;1.60;;;12.30;1.00;;;;;;4954696;29;20195;-67
2021/10/09 10:08:27;;;;;;;2.47;2.30;;;12.40;1.00;;;;;;4955806;28;20664;-66
2021/10/09 10:10:55;;;;;;;1.87;1.40;;;12.50;99.90;;;;;;4955664;29;20180;-66
2021/10/09 10:13:29;;;;;;;1.15;0.98;;;12.50;1.00;;;;;;4955773;29;20254;-67
2021/10/09 10:16:04;;;;;;;1.98;1.73;;;12.60;1.00;;;;;;4956089;29;20186;-67
2021/10/09 10:18:50;;;;;;;2.15;1.38;;;12.80;99.90;;;;;;4954802;29;20183;-67
2021/10/09 10:21:17;;;;;;;1.05;0.95;;;12.60;90.50;;;;;;4956526;28;20294;-67
2021/10/09 10:23:47;;;;;;;2.55;1.85;;;12.60;99.90;;;;;;4966657;28;20669;-67
2021/10/09 10:26:22;;;;;;;3.10;1.85;;;12.60;47.60;;;;;;4967677;28;20197;-67
2021/10/09 10:28:51;;;;;;;2.33;2.13;;;12.70;99.90;;;;;;4967085;29;20196;-67
2021/10/09 10:31:17;;;;;;;2.15;1.60;;;12.80;99.90;;;;;;4963452;29;20189;-67
2021/10/09 10:33:44;;;;;;;4.23;2.73;;;12.70;1.00;;;;;;4955941;29;20186;-67
2021/10/09 10:36:11;;;;;;;2.03;1.73;;;12.80;1.00;;;;;;4955939;29;20204;-67
2021/10/09 10:38:47;;;;;;;4.45;2.05;;;12.80;12.30;;;;;;4956334;28;20195;-69
2021/10/09 10:41:19;;;;;;;1.05;0.73;;;12.80;99.90;;;;;;4955730;28;20207;-67
2021/10/09 10:43:56;;;;;;;2.03;1.92;;;12.80;27.70;;;;;;4956029;28;20182;-67
2021/10/09 10:46:49;;;;;;;3.92;3.63;;;12.90;99.90;;;;;;4955551;28;20179;-68
2021/10/09 10:51:50;;;;;;;0.95;0.73;;;13.10;93.10;;;;;;4955212;29;20184;-67
2021/10/09 10:54:23;;;;;;;0.30;0.20;;;13.20;37.90;;;;;;4955818;28;20190;-67
2021/10/09 10:57:03;;;;;;;0.30;0.20;;;13.40;99.90;;;;;;4955624;29;20212;-67
2021/10/09 10:59:59;;;;;;;0.85;0.82;;;13.70;38.10;;;;;;4955657;28;20266;-67
2021/10/09 11:02:40;;;;;;;1.52;1.42;;;13.80;1.00;;;;;;4951136;28;20211;-67
2021/10/09 11:05:10;;;;;;;5.50;5.10;;;13.70;1.00;;;;;;4955541;28;20708;-67
2021/10/09 11:07:44;;;;;;;1.13;1.02;;;13.60;1.00;;;;;;4955023;28;20184;-67
2021/10/09 11:10:12;;;;;;;6.45;6.13;;;13.50;1.00;;;;;;4955121;28;20216;-67
2021/10/09 11:12:42;;;;;;;4.65;3.50;;;13.60;1.00;;;;;;4955650;28;20257;-67
2021/10/09 11:15:22;;;;;;;1.55;1.20;;;13.50;1.00;;;;;;4955329;28;20184;-67
2021/10/09 11:17:58;;;;;;;0.50;0.50;;;13.50;43.10;;;;;;4955304;28;20239;-67
2021/10/09 11:20:30;;;;;;;1.17;1.13;;;13.50;99.90;;;;;;4954045;29;20219;-67
2021/10/09 11:23:00;;;;;;;0.70;0.52;;;13.60;99.90;;;;;;4955645;28;20259;-68
2021/10/09 11:25:30;;;;;;;4.15;1.73;;;13.60;99.90;;;;;;4956103;29;20187;-68
2021/10/09 11:27:57;;;;;;;1.40;1.10;;;13.70;99.90;;;;;;4955829;28;20188;-67
2021/10/09 11:30:24;;;;;;;0.40;0.20;;;13.70;99.90;;;;;;4955522;28;20184;-68
2021/10/09 11:32:51;;;;;;;1.27;0.98;;;13.80;99.90;;;;;;4955644;28;20192;-68
2021/10/09 11:35:31;;;;;;;1.25;1.15;;;13.90;99.90;;;;;;4955449;29;20231;-67
2021/10/09 11:37:57;;;;;;;1.83;1.70;;;13.90;99.90;;;;;;4955278;28;20192;-68
2021/10/09 11:40:30;;;;;;;2.88;1.15;;;14.10;99.90;;;;;;4953837;29;20307;-68
2021/10/09 11:43:10;;;;;;;2.78;2.65;;;14.00;99.90;;;;;;4954231;29;20653;-68
2021/10/09 11:54:34;;;;;;;0.93;0.77;;;14.20;1.00;;;;;;4955371;29;20186;-68
2021/10/09 11:57:02;;;;;;;0.40;0.20;;;14.20;99.90;;;;;;4955050;28;20180;-68
2021/10/09 11:59:37;;;;;;;4.32;1.77;;;14.50;99.90;;;;;;4954887;29;20414;-68
2021/10/09 12:02:03;;;;;;;0.60;0.55;;;14.50;1.00;;;;;;4953867;28;20687;-68
2021/10/09 12:04:29;;;;;;;2.27;1.93;;;14.50;1.00;;;;;;4957972;28;20192;-67
2021/10/09 12:07:08;;;;;;;0.57;0.30;;;14.50;1.00;;;;;;4958283;28;20431;-67
2021/10/09 12:09:40;;;;;;;0.88;0.73;;;14.40;1.00;;;;;;4957992;28;20210;-68
2021/10/09 12:12:12;;;;;;;0.40;0.20;;;14.50;1.00;;;;;;4958111;28;20275;-67
2021/10/09 12:14:37;;;;;;;1.13;1.02;;;14.50;99.90;;;;;;4959468;28;20286;-67
2021/10/09 12:17:03;;;;;;;0.53;0.53;;;14.50;99.90;;;;;;4958028;29;20236;-67
2021/10/09 12:19:30;;;;;;;0.40;0.20;;;14.60;1.00;;;;;;4958141;29;20187;-68
2021/10/09 12:22:01;;;;;;;0.82;0.80;;;14.70;1.00;;;;;;4957744;28;20227;-67
2021/10/09 12:24:30;;;;;;;3.10;1.67;;;14.90;99.90;;;;;;4957504;28;20184;-67
2021/10/09 12:27:13;;;;;;;1.85;1.50;;;14.90;99.90;;;;;;4957742;28;20180;-67
2021/10/09 12:30:03;;;;;;;2.67;2.22;;;14.80;99.90;;;;;;4957650;28;20172;-68
2021/10/09 12:32:38;;;;;;;0.60;0.40;;;14.80;99.90;;;;;;4958009;28;20207;-68
2021/10/09 12:35:27;;;;;;;2.08;1.25;;;15.00;99.90;;;;;;4957526;28;20282;-67
2021/10/09 12:38:03;;;;;;;0.40;0.20;;;15.10;99.90;;;;;;4957511;28;20246;-68
2021/10/09 12:40:39;;;;;;;1.02;0.93;;;15.20;99.90;;;;;;4957410;28;20202;-68
2021/10/09 12:43:07;;;;;;;1.38;1.27;;;15.10;75.80;;;;;;4957179;28;20184;-67
2021/10/09 12:45:33;;;;;;;0.85;0.30;;;15.10;89.10;;;;;;4957649;28;20173;-66
2021/10/09 12:48:00;;;;;;;0.80;0.63;;;15.20;98.30;;;;;;4957175;29;20176;-66
2021/10/09 12:50:28;;;;;;;0.95;0.70;;;15.10;46.50;;;;;;4957232;28;20666;-67
2021/10/09 12:52:54;;;;;;;5.55;5.25;;;15.10;1.00;;;;;;4956530;29;20220;-67
2021/10/09 12:55:27;;;;;;;1.35;1.17;;;15.20;1.00;;;;;;4957610;28;20299;-67
2021/10/09 12:57:55;;;;;;;0.40;0.20;;;15.40;1.00;;;;;;4957464;28;20636;-68
2021/10/09 13:00:23;;;;;;;0.40;0.20;;;15.30;1.00;;;;;;4958293;28;20216;-68
2021/10/09 13:02:51;;;;;;;0.82;0.80;;;15.40;1.00;;;;;;4957324;28;20184;-67
2021/10/09 13:05:20;;;;;;;1.95;1.70;;;15.40;1.00;;;;;;4957152;28;20172;-66
2021/10/09 13:07:46;;;;;;;1.60;0.73;;;15.30;1.00;;;;;;4957215;29;20186;-68
2021/10/09 13:10:12;;;;;;;1.13;0.57;;;15.40;1.00;;;;;;4958207;28;20735;-67
2021/10/09 13:12:41;;;;;;;1.58;1.05;;;15.20;1.00;;;;;;4957624;29;20187;-69
2021/10/09 13:15:07;;;;;;;1.38;0.75;;;15.20;1.00;;;;;;4956166;28;20177;-67
2021/10/09 13:17:33;;;;;;;0.70;0.45;;;15.30;1.00;;;;;;4956010;29;20216;-67
2021/10/09 13:19:59;;;;;;;2.40;0.37;;;15.10;1.00;;;;;;4955439;29;20212;-67
2021/10/09 13:22:24;;;;;;;0.53;0.53;;;15.20;1.00;;;;;;4956790;29;20634;-67
2021/10/09 13:24:50;;;;;;;0.80;0.50;;;15.30;1.00;;;;;;4957107;28;20241;-68
2021/10/09 13:27:17;;;;;;;0.70;0.47;;;15.40;1.00;;;;;;4956709;28;20192;-67
2021/10/09 13:29:43;;;;;;;0.93;0.73;;;15.20;1.00;;;;;;4956579;28;20434;-67
2021/10/09 13:32:08;;;;;;;1.70;1.60;;;15.20;1.00;;;;;;4956884;29;20673;-68
2021/10/09 13:34:34;;;;;;;2.80;1.80;;;15.20;1.00;;;;;;4956717;29;20180;-67
2021/10/09 13:37:00;;;;;;;0.40;0.20;;;15.00;1.00;;;;;;4957042;29;20185;-67
2021/10/09 13:39:25;;;;;;;1.37;1.23;;;15.10;1.00;;;;;;4956733;29;20180;-68
2021/10/09 13:41:51;;;;;;;4.00;1.23;;;15.10;1.00;;;;;;4956349;29;20306;-67
2021/10/09 13:44:16;;;;;;;2.20;1.20;;;15.20;1.00;;;;;;4955558;29;20268;-68
2021/10/09 13:46:47;;;;;;;5.93;5.53;;;15.10;1.00;;;;;;4957250;29;20253;-66
2021/10/09 13:49:16;;;;;;;2.70;1.50;;;15.20;1.00;;;;;;4956593;28;20177;-67
2021/10/09 13:51:42;;;;;;;0.73;0.40;;;15.10;1.00;;;;;;4957795;28;20551;-67
2021/10/09 13:54:07;;;;;;;0.40;0.20;;;15.00;1.00;;;;;;4958740;28;20247;-67
2021/10/09 13:56:37;;;;;;;0.73;0.63;;;14.90;1.00;;;;;;4956040;29;20267;-68
2021/10/09 13:59:02;;;;;;;1.25;0.73;;;14.80;1.00;;;;;;4955926;28;20184;-68
2021/10/09 14:01:28;;;;;;;1.63;1.20;;;14.80;1.00;;;;;;4956361;28;20303;-68
2021/10/09 14:03:53;;;;;;;1.07;0.93;;;14.80;1.00;;;;;;4957036;28;20239;-68
2021/10/09 14:06:19;;;;;;;0.70;0.40;;;14.80;1.00;;;;;;4955823;29;20247;-68
2021/10/09 14:08:44;;;;;;;1.73;1.57;;;15.00;1.00;;;;;;4954545;29;20192;-67
2021/10/09 14:11:10;;;;;;;0.50;0.40;;;15.00;1.00;;;;;;4954916;29;20184;-68
2021/10/09 14:13:36;;;;;;;1.77;1.00;;;14.90;1.00;;;;;;4956389;29;20196;-67
2021/10/09 14:16:01;;;;;;;0.50;0.40;;;14.90;1.00;;;;;;4954846;29;20188;-68
2021/10/09 14:18:27;;;;;;;0.40;0.20;;;14.90;1.00;;;;;;4955591;29;20261;-67
2021/10/09 14:20:54;;;;;;;0.80;0.70;;;15.10;1.00;;;;;;4955482;28;20215;-67
2021/10/09 14:23:21;;;;;;;0.40;0.17;;;15.10;1.00;;;;;;4955316;28;20180;-67
2021/10/09 14:25:47;;;;;;;0.40;0.20;;;15.20;1.00;;;;;;4955746;28;20587;-68
2021/10/09 14:28:14;;;;;;;1.00;0.90;;;15.20;1.00;;;;;;4955307;28;20184;-68
2021/10/09 14:30:40;;;;;;;1.05;0.73;;;15.10;1.00;;;;;;4954655;29;20184;-68
2021/10/09 14:33:06;;;;;;;1.05;0.90;;;15.20;1.00;;;;;;4955653;28;20184;-68
2021/10/09 14:35:32;;;;;;;2.50;2.30;;;15.00;1.00;;;;;;4955298;28;20191;-67
2021/10/09 14:37:58;;;;;;;0.40;0.20;;;14.80;1.00;;;;;;4955286;29;20184;-67
2021/10/09 14:40:25;;;;;;;0.40;0.20;;;14.90;1.00;;;;;;4955327;29;20797;-66
2021/10/09 14:42:50;;;;;;;1.10;1.10;;;14.90;1.00;;;;;;4955644;28;20180;-68
2021/10/09 14:45:18;;;;;;;0.40;0.20;;;14.90;1.00;;;;;;4955391;29;20191;-67
2021/10/09 14:47:49;;;;;;;0.40;0.20;;;15.10;1.00;;;;;;4955422;29;20535;-67
2021/10/09 15:17:42;;;;;;;1.33;1.23;;;15.20;1.00;;;;;;4956349;29;20250;-68
2021/10/09 15:20:08;;;;;;;1.23;1.00;;;15.00;18.30;;;;;;4955219;29;20188;-67